Keifu Maru — JPBN — position and weather

sailwx.info

Track history (hours):
 
Tides and Currents Weather Stations Pressure Air Temp Water Temp Dewpoint Dewpoint Depression Visibility Wind Speed Wind Dir Waves Ship Positions

Oceanographic research ship Keifu Maru (Japan)

Detailed information on ship capabilities available from University of Delaware's Ocean Information Center.

Last reported at 2019-Oct-31 12:55 UTC. Time now 2019-Nov-15 23:33 UTC.
Position N 34°38' E 135°29'.
Warning: this ship's position is 15 days out of date.

Length 81.4 m; beam 13.4 m; draft 4.7 m.

Type: Ship. MMSI: 431560000.

Date/timePositionNaut miles runAvg speedWind from/ knotsBaromVisibWave heightAir tempDewpointWater temp
2019-Oct-31 12:55N 34°38' E 135°29'0 0.0
2019-Oct-31 12:07N 34°38' E 135°29'0 0.0
2019-Oct-31 07:55N 34°38' E 135°29'2 0.2
2019-Oct-30 23:29N 34°38' E 135°27'2 5.1
2019-Oct-30 23:00N 34°38' E 135°24'4 7.2
2019-Oct-30 22:30N 34°36' E 135°20'1 1.1
2019-Oct-30 21:43N 34°35' E 135°20'1 0.1
2019-Oct-30 03:30N 34°35' E 135°19'612.0
2019-Oct-30 03:00N 34°31' E 135°13'714.3
2019-Oct-30 02:30N 34°26' E 135°07'714.7
2019-Oct-30 02:00N 34°20' E 135°02'713.8
2019-Oct-30 01:30N 34°13' E 134°60'715.0
2019-Oct-30 01:00N 34°06' E 134°60'914.9
2019-Oct-30 00:26N 33°57' E 134°59'24311.9
2019-Oct-29 03:57N 35°06' E 139°43'814.9
2019-Oct-29 03:26N 35°13' E 139°46'512.4
2019-Oct-29 03:00N 35°18' E 139°44'1211.9
2019-Oct-29 02:01N 35°29' E 139°50'  
2019-Oct-22 00:22N 35°38' E 139°47'1 2.4
2019-Oct-21 23:59N 35°38' E 139°46'510.3
2019-Oct-21 23:30N 35°34' E 139°50'3 5.0
2019-Oct-21 22:56N 35°33' E 139°53'0 0.0
2019-Oct-21 20:56N 35°33' E 139°53'0 0.0
2019-Oct-21 19:44N 35°33' E 139°53'0 0.0
2019-Oct-21 19:02N 35°33' E 139°53'0 0.5
2019-Oct-21 18:56N 35°33' E 139°53'0 0.0
2019-Oct-21 18:26N 35°33' E 139°53'0 0.0
2019-Oct-21 17:08N 35°33' E 139°53'0 0.0
2019-Oct-21 15:56N 35°33' E 139°53'0 0.0
2019-Oct-21 14:41N 35°33' E 139°53'0 0.0
2019-Oct-21 14:20N 35°33' E 139°53'0 0.1
2019-Oct-21 13:50N 35°33' E 139°53'0 0.0
2019-Oct-21 13:17N 35°33' E 139°53'  
Track history (hours):
 
Tides and Currents Weather Stations Pressure Air Temp Water Temp Dewpoint Dewpoint Depression Visibility Wind Speed Wind Dir Waves Ship Positions

Oceanographic research ship Keifu Maru (Japan)

Detailed information on ship capabilities available from University of Delaware's Ocean Information Center.

Last reported at 2019-Oct-31 12:55 UTC. Time now 2019-Nov-15 23:33 UTC.
Position N 34°38' E 135°29'.
Warning: this ship's position is 15 days out of date.

Length 81.4 m; beam 13.4 m; draft 4.7 m.

Type: Ship. MMSI: 431560000.

Date/timePositionNaut miles runAvg speedWind from/ knotsBaromVisibWave heightAir tempDewpointWater temp
2019-Oct-31 12:55N 34°38' E 135°29'0 0.0
2019-Oct-31 12:07N 34°38' E 135°29'0 0.0
2019-Oct-31 07:55N 34°38' E 135°29'2 0.2
2019-Oct-30 23:29N 34°38' E 135°27'2 5.1
2019-Oct-30 23:00N 34°38' E 135°24'4 7.2
2019-Oct-30 22:30N 34°36' E 135°20'1 1.1
2019-Oct-30 21:43N 34°35' E 135°20'1 0.1
2019-Oct-30 03:30N 34°35' E 135°19'612.0
2019-Oct-30 03:00N 34°31' E 135°13'714.3
2019-Oct-30 02:30N 34°26' E 135°07'714.7
2019-Oct-30 02:00N 34°20' E 135°02'713.8
2019-Oct-30 01:30N 34°13' E 134°60'715.0
2019-Oct-30 01:00N 34°06' E 134°60'914.9
2019-Oct-30 00:26N 33°57' E 134°59'24311.9
2019-Oct-29 03:57N 35°06' E 139°43'814.9
2019-Oct-29 03:26N 35°13' E 139°46'512.4
2019-Oct-29 03:00N 35°18' E 139°44'1211.9
2019-Oct-29 02:01N 35°29' E 139°50'  
2019-Oct-22 00:22N 35°38' E 139°47'1 2.4
2019-Oct-21 23:59N 35°38' E 139°46'510.3
2019-Oct-21 23:30N 35°34' E 139°50'3 5.0
2019-Oct-21 22:56N 35°33' E 139°53'0 0.0
2019-Oct-21 20:56N 35°33' E 139°53'0 0.0
2019-Oct-21 19:44N 35°33' E 139°53'0 0.0
2019-Oct-21 19:02N 35°33' E 139°53'0 0.5
2019-Oct-21 18:56N 35°33' E 139°53'0 0.0
2019-Oct-21 18:26N 35°33' E 139°53'0 0.0
2019-Oct-21 17:08N 35°33' E 139°53'0 0.0
2019-Oct-21 15:56N 35°33' E 139°53'0 0.0
2019-Oct-21 14:41N 35°33' E 139°53'0 0.0
2019-Oct-21 14:20N 35°33' E 139°53'0 0.1
2019-Oct-21 13:50N 35°33' E 139°53'0 0.0
2019-Oct-21 13:17N 35°33' E 139°53'  

Dump ship's entire track history